sensor_id;sensor_type;location;lat;lon;timestamp;P1;durP1;ratioP1;P2;durP2;ratioP2
16522;SDS011;19889;52.546;13.348;2023-04-25T00:00:02;2.80;;;2.07;;
16522;SDS011;19889;52.546;13.348;2023-04-25T00:02:37;4.23;;;2.70;;
16522;SDS011;19889;52.546;13.348;2023-04-25T00:05:04;5.90;;;2.40;;
16522;SDS011;19889;52.546;13.348;2023-04-25T00:07:32;3.30;;;2.47;;
16522;SDS011;19889;52.546;13.348;2023-04-25T00:10:01;6.53;;;2.67;;
16522;SDS011;19889;52.546;13.348;2023-04-25T00:12:28;3.47;;;2.13;;
16522;SDS011;19889;52.546;13.348;2023-04-25T00:14:55;4.57;;;2.20;;
16522;SDS011;19889;52.546;13.348;2023-04-25T00:17:23;5.03;;;2.33;;
16522;SDS011;19889;52.546;13.348;2023-04-25T00:19:50;4.30;;;2.20;;
16522;SDS011;19889;52.546;13.348;2023-04-25T00:22:17;4.23;;;2.13;;
16522;SDS011;19889;52.546;13.348;2023-04-25T00:24:45;5.63;;;2.50;;
16522;SDS011;19889;52.546;13.348;2023-04-25T00:27:13;4.47;;;2.40;;
16522;SDS011;19889;52.546;13.348;2023-04-25T00:29:40;2.93;;;1.73;;
16522;SDS011;19889;52.546;13.348;2023-04-25T00:32:07;4.83;;;2.20;;
16522;SDS011;19889;52.546;13.348;2023-04-25T00:34:33;8.80;;;5.00;;
16522;SDS011;19889;52.546;13.348;2023-04-25T00:37:01;12.27;;;6.07;;
16522;SDS011;19889;52.546;13.348;2023-04-25T00:39:28;3.80;;;3.17;;
16522;SDS011;19889;52.546;13.348;2023-04-25T00:41:55;6.33;;;4.00;;
16522;SDS011;19889;52.546;13.348;2023-04-25T00:44:23;8.63;;;4.10;;
16522;SDS011;19889;52.546;13.348;2023-04-25T00:46:51;2.93;;;2.30;;
16522;SDS011;19889;52.546;13.348;2023-04-25T00:49:20;7.00;;;4.30;;
16522;SDS011;19889;52.546;13.348;2023-04-25T00:51:47;8.77;;;4.67;;
16522;SDS011;19889;52.546;13.348;2023-04-25T00:54:14;10.30;;;4.27;;
16522;SDS011;19889;52.546;13.348;2023-04-25T00:56:42;4.83;;;2.70;;
16522;SDS011;19889;52.546;13.348;2023-04-25T00:59:10;3.20;;;2.10;;
16522;SDS011;19889;52.546;13.348;2023-04-25T01:01:39;6.53;;;2.90;;
16522;SDS011;19889;52.546;13.348;2023-04-25T01:04:08;3.30;;;2.37;;
16522;SDS011;19889;52.546;13.348;2023-04-25T01:06:35;3.90;;;2.40;;
16522;SDS011;19889;52.546;13.348;2023-04-25T01:09:02;4.80;;;2.30;;
16522;SDS011;19889;52.546;13.348;2023-04-25T01:11:30;8.37;;;2.20;;
16522;SDS011;19889;52.546;13.348;2023-04-25T01:13:58;3.27;;;2.37;;
16522;SDS011;19889;52.546;13.348;2023-04-25T01:16:25;3.80;;;2.37;;
16522;SDS011;19889;52.546;13.348;2023-04-25T01:18:54;4.13;;;2.00;;
16522;SDS011;19889;52.546;13.348;2023-04-25T01:21:23;6.43;;;2.00;;
16522;SDS011;19889;52.546;13.348;2023-04-25T01:23:52;3.70;;;2.10;;
16522;SDS011;19889;52.546;13.348;2023-04-25T01:26:20;8.57;;;2.40;;
16522;SDS011;19889;52.546;13.348;2023-04-25T01:28:48;3.97;;;2.20;;
16522;SDS011;19889;52.546;13.348;2023-04-25T01:31:16;5.00;;;2.00;;
16522;SDS011;19889;52.546;13.348;2023-04-25T01:33:44;3.43;;;1.73;;
16522;SDS011;19889;52.546;13.348;2023-04-25T01:36:11;4.70;;;2.30;;
16522;SDS011;19889;52.546;13.348;2023-04-25T01:38:40;3.17;;;1.70;;
16522;SDS011;19889;52.546;13.348;2023-04-25T01:41:09;5.80;;;2.23;;
16522;SDS011;19889;52.546;13.348;2023-04-25T01:43:36;3.10;;;1.83;;
16522;SDS011;19889;52.546;13.348;2023-04-25T01:46:03;2.30;;;1.93;;
16522;SDS011;19889;52.546;13.348;2023-04-25T01:48:30;4.47;;;2.30;;
16522;SDS011;19889;52.546;13.348;2023-04-25T01:50:57;5.77;;;2.67;;
16522;SDS011;19889;52.546;13.348;2023-04-25T01:53:24;7.60;;;2.47;;
16522;SDS011;19889;52.546;13.348;2023-04-25T01:55:53;4.10;;;2.23;;
16522;SDS011;19889;52.546;13.348;2023-04-25T01:58:22;3.23;;;2.03;;
16522;SDS011;19889;52.546;13.348;2023-04-25T02:01:15;5.07;;;2.23;;
16522;SDS011;19889;52.546;13.348;2023-04-25T02:03:50;6.50;;;2.60;;
16522;SDS011;19889;52.546;13.348;2023-04-25T02:06:26;4.67;;;1.90;;
16522;SDS011;19889;52.546;13.348;2023-04-25T02:08:56;3.43;;;2.30;;
16522;SDS011;19889;52.546;13.348;2023-04-25T02:11:24;3.33;;;2.30;;
16522;SDS011;19889;52.546;13.348;2023-04-25T02:14:11;4.30;;;2.13;;
16522;SDS011;19889;52.546;13.348;2023-04-25T02:16:47;2.93;;;2.70;;
16522;SDS011;19889;52.546;13.348;2023-04-25T02:19:14;4.63;;;2.50;;
16522;SDS011;19889;52.546;13.348;2023-04-25T02:21:41;3.87;;;2.33;;
16522;SDS011;19889;52.546;13.348;2023-04-25T02:24:10;4.87;;;2.43;;
16522;SDS011;19889;52.546;13.348;2023-04-25T02:26:38;7.17;;;2.20;;
16522;SDS011;19889;52.546;13.348;2023-04-25T02:29:07;4.00;;;2.30;;
16522;SDS011;19889;52.546;13.348;2023-04-25T02:31:35;6.83;;;2.77;;
16522;SDS011;19889;52.546;13.348;2023-04-25T02:34:02;4.40;;;2.43;;
16522;SDS011;19889;52.546;13.348;2023-04-25T02:36:29;3.97;;;2.70;;
16522;SDS011;19889;52.546;13.348;2023-04-25T02:38:59;4.80;;;2.80;;
16522;SDS011;19889;52.546;13.348;2023-04-25T02:41:26;9.77;;;3.43;;
16522;SDS011;19889;52.546;13.348;2023-04-25T02:43:55;6.90;;;2.67;;
16522;SDS011;19889;52.546;13.348;2023-04-25T02:46:22;4.10;;;2.50;;
16522;SDS011;19889;52.546;13.348;2023-04-25T02:48:49;3.87;;;2.23;;
16522;SDS011;19889;52.546;13.348;2023-04-25T02:51:16;4.80;;;2.53;;
16522;SDS011;19889;52.546;13.348;2023-04-25T02:53:43;5.60;;;2.53;;
16522;SDS011;19889;52.546;13.348;2023-04-25T02:56:10;7.60;;;3.50;;
16522;SDS011;19889;52.546;13.348;2023-04-25T02:58:37;6.47;;;3.20;;
16522;SDS011;19889;52.546;13.348;2023-04-25T03:01:06;4.53;;;2.50;;
16522;SDS011;19889;52.546;13.348;2023-04-25T03:03:33;5.97;;;2.80;;
16522;SDS011;19889;52.546;13.348;2023-04-25T03:06:00;3.63;;;2.67;;
16522;SDS011;19889;52.546;13.348;2023-04-25T03:08:30;3.90;;;2.67;;
16522;SDS011;19889;52.546;13.348;2023-04-25T03:11:00;3.57;;;3.17;;
16522;SDS011;19889;52.546;13.348;2023-04-25T03:13:27;7.17;;;3.50;;
16522;SDS011;19889;52.546;13.348;2023-04-25T03:15:55;6.10;;;2.87;;
16522;SDS011;19889;52.546;13.348;2023-04-25T03:18:24;6.17;;;2.60;;
16522;SDS011;19889;52.546;13.348;2023-04-25T03:20:51;3.73;;;2.77;;
16522;SDS011;19889;52.546;13.348;2023-04-25T03:23:18;5.40;;;3.17;;
16522;SDS011;19889;52.546;13.348;2023-04-25T03:25:45;5.80;;;3.03;;
16522;SDS011;19889;52.546;13.348;2023-04-25T03:28:12;4.10;;;2.43;;
16522;SDS011;19889;52.546;13.348;2023-04-25T03:30:39;7.23;;;3.37;;
16522;SDS011;19889;52.546;13.348;2023-04-25T03:33:06;3.40;;;3.10;;
16522;SDS011;19889;52.546;13.348;2023-04-25T03:35:34;5.03;;;2.97;;
16522;SDS011;19889;52.546;13.348;2023-04-25T03:38:01;6.03;;;2.40;;
16522;SDS011;19889;52.546;13.348;2023-04-25T03:40:33;4.87;;;2.83;;
16522;SDS011;19889;52.546;13.348;2023-04-25T03:43:19;5.77;;;2.90;;
16522;SDS011;19889;52.546;13.348;2023-04-25T03:45:54;9.93;;;3.00;;
16522;SDS011;19889;52.546;13.348;2023-04-25T03:48:22;6.70;;;3.00;;
16522;SDS011;19889;52.546;13.348;2023-04-25T03:50:51;5.47;;;3.27;;
16522;SDS011;19889;52.546;13.348;2023-04-25T03:53:19;7.00;;;3.63;;
16522;SDS011;19889;52.546;13.348;2023-04-25T03:56:04;4.87;;;3.10;;
16522;SDS011;19889;52.546;13.348;2023-04-25T03:58:34;5.40;;;3.10;;
16522;SDS011;19889;52.546;13.348;2023-04-25T04:01:01;5.90;;;2.90;;
16522;SDS011;19889;52.546;13.348;2023-04-25T04:03:33;6.77;;;3.10;;
16522;SDS011;19889;52.546;13.348;2023-04-25T04:06:02;4.47;;;2.87;;
16522;SDS011;19889;52.546;13.348;2023-04-25T04:08:32;4.63;;;3.07;;
16522;SDS011;19889;52.546;13.348;2023-04-25T04:10:59;9.00;;;3.27;;
16522;SDS011;19889;52.546;13.348;2023-04-25T04:13:26;9.03;;;3.70;;
16522;SDS011;19889;52.546;13.348;2023-04-25T04:15:53;6.80;;;3.00;;
16522;SDS011;19889;52.546;13.348;2023-04-25T04:18:23;5.07;;;2.97;;
16522;SDS011;19889;52.546;13.348;2023-04-25T04:20:50;4.90;;;3.00;;
16522;SDS011;19889;52.546;13.348;2023-04-25T04:23:19;5.30;;;3.10;;
16522;SDS011;19889;52.546;13.348;2023-04-25T04:25:48;5.63;;;3.50;;
16522;SDS011;19889;52.546;13.348;2023-04-25T04:28:38;3.90;;;2.73;;
16522;SDS011;19889;52.546;13.348;2023-04-25T04:31:28;5.60;;;3.10;;
16522;SDS011;19889;52.546;13.348;2023-04-25T04:33:56;7.40;;;3.40;;
16522;SDS011;19889;52.546;13.348;2023-04-25T04:36:23;3.63;;;2.60;;
16522;SDS011;19889;52.546;13.348;2023-04-25T04:38:53;4.30;;;3.33;;
16522;SDS011;19889;52.546;13.348;2023-04-25T04:41:41;6.63;;;2.97;;
16522;SDS011;19889;52.546;13.348;2023-04-25T04:44:12;6.80;;;3.20;;
16522;SDS011;19889;52.546;13.348;2023-04-25T04:46:52;4.73;;;2.80;;
16522;SDS011;19889;52.546;13.348;2023-04-25T04:49:37;4.10;;;2.90;;
16522;SDS011;19889;52.546;13.348;2023-04-25T04:52:19;8.43;;;3.30;;
16522;SDS011;19889;52.546;13.348;2023-04-25T04:55:14;6.50;;;3.10;;
16522;SDS011;19889;52.546;13.348;2023-04-25T04:58:01;6.77;;;3.60;;
16522;SDS011;19889;52.546;13.348;2023-04-25T05:00:48;4.33;;;3.10;;
16522;SDS011;19889;52.546;13.348;2023-04-25T05:03:47;4.57;;;2.97;;
16522;SDS011;19889;52.546;13.348;2023-04-25T05:06:37;4.20;;;3.43;;
16522;SDS011;19889;52.546;13.348;2023-04-25T05:09:37;7.57;;;3.00;;
16522;SDS011;19889;52.546;13.348;2023-04-25T05:12:38;6.47;;;3.00;;
16522;SDS011;19889;52.546;13.348;2023-04-25T05:15:24;6.33;;;3.17;;
16522;SDS011;19889;52.546;13.348;2023-04-25T05:18:20;3.73;;;3.20;;
16522;SDS011;19889;52.546;13.348;2023-04-25T05:21:14;7.43;;;2.90;;
16522;SDS011;19889;52.546;13.348;2023-04-25T05:23:48;5.93;;;3.43;;
16522;SDS011;19889;52.546;13.348;2023-04-25T05:26:35;8.07;;;3.00;;
16522;SDS011;19889;52.546;13.348;2023-04-25T05:29:22;7.53;;;3.10;;
16522;SDS011;19889;52.546;13.348;2023-04-25T05:32:10;7.07;;;3.03;;
16522;SDS011;19889;52.546;13.348;2023-04-25T05:34:38;5.67;;;2.70;;
16522;SDS011;19889;52.546;13.348;2023-04-25T05:37:13;5.77;;;3.00;;
16522;SDS011;19889;52.546;13.348;2023-04-25T05:39:51;7.83;;;3.43;;
16522;SDS011;19889;52.546;13.348;2023-04-25T05:42:46;8.40;;;3.23;;
16522;SDS011;19889;52.546;13.348;2023-04-25T05:45:43;6.57;;;3.40;;
16522;SDS011;19889;52.546;13.348;2023-04-25T05:48:29;9.17;;;3.40;;
16522;SDS011;19889;52.546;13.348;2023-04-25T05:51:07;5.90;;;3.03;;
16522;SDS011;19889;52.546;13.348;2023-04-25T05:53:50;7.03;;;4.40;;
16522;SDS011;19889;52.546;13.348;2023-04-25T05:56:18;6.67;;;3.80;;
16522;SDS011;19889;52.546;13.348;2023-04-25T05:58:50;7.97;;;4.00;;
16522;SDS011;19889;52.546;13.348;2023-04-25T06:01:18;6.93;;;3.50;;
16522;SDS011;19889;52.546;13.348;2023-04-25T06:03:45;5.97;;;3.33;;
16522;SDS011;19889;52.546;13.348;2023-04-25T06:06:12;8.63;;;3.70;;
16522;SDS011;19889;52.546;13.348;2023-04-25T06:08:39;6.33;;;3.73;;
16522;SDS011;19889;52.546;13.348;2023-04-25T06:11:10;8.47;;;4.10;;
16522;SDS011;19889;52.546;13.348;2023-04-25T06:13:37;6.27;;;3.60;;
16522;SDS011;19889;52.546;13.348;2023-04-25T06:16:04;6.90;;;3.93;;
16522;SDS011;19889;52.546;13.348;2023-04-25T06:18:33;6.73;;;3.20;;
16522;SDS011;19889;52.546;13.348;2023-04-25T06:21:00;6.73;;;3.83;;
16522;SDS011;19889;52.546;13.348;2023-04-25T06:23:28;4.67;;;3.73;;
16522;SDS011;19889;52.546;13.348;2023-04-25T06:26:00;6.97;;;3.60;;
16522;SDS011;19889;52.546;13.348;2023-04-25T06:28:29;8.80;;;3.50;;
16522;SDS011;19889;52.546;13.348;2023-04-25T06:30:56;5.97;;;3.47;;
16522;SDS011;19889;52.546;13.348;2023-04-25T06:33:23;6.87;;;3.60;;
16522;SDS011;19889;52.546;13.348;2023-04-25T06:35:52;12.03;;;3.80;;
16522;SDS011;19889;52.546;13.348;2023-04-25T06:38:23;5.67;;;3.83;;
16522;SDS011;19889;52.546;13.348;2023-04-25T06:40:51;3.97;;;3.30;;
16522;SDS011;19889;52.546;13.348;2023-04-25T06:43:18;6.53;;;3.73;;
16522;SDS011;19889;52.546;13.348;2023-04-25T06:46:03;6.70;;;3.33;;
16522;SDS011;19889;52.546;13.348;2023-04-25T06:48:34;7.77;;;3.80;;
16522;SDS011;19889;52.546;13.348;2023-04-25T06:51:03;6.17;;;3.13;;
16522;SDS011;19889;52.546;13.348;2023-04-25T06:53:30;8.63;;;4.10;;
16522;SDS011;19889;52.546;13.348;2023-04-25T06:56:00;7.50;;;4.20;;
16522;SDS011;19889;52.546;13.348;2023-04-25T06:58:59;6.17;;;3.63;;
16522;SDS011;19889;52.546;13.348;2023-04-25T07:01:29;4.80;;;3.10;;
16522;SDS011;19889;52.546;13.348;2023-04-25T07:03:58;5.97;;;2.63;;
16522;SDS011;19889;52.546;13.348;2023-04-25T07:06:27;9.37;;;3.60;;
16522;SDS011;19889;52.546;13.348;2023-04-25T07:08:54;5.83;;;2.90;;
16522;SDS011;19889;52.546;13.348;2023-04-25T07:11:22;5.83;;;3.63;;
16522;SDS011;19889;52.546;13.348;2023-04-25T07:13:49;8.70;;;5.50;;
16522;SDS011;19889;52.546;13.348;2023-04-25T07:16:16;7.60;;;4.40;;
16522;SDS011;19889;52.546;13.348;2023-04-25T07:18:43;6.10;;;3.80;;
16522;SDS011;19889;52.546;13.348;2023-04-25T07:21:10;8.70;;;3.63;;
16522;SDS011;19889;52.546;13.348;2023-04-25T07:23:38;7.27;;;3.50;;
16522;SDS011;19889;52.546;13.348;2023-04-25T07:26:10;6.30;;;3.40;;
16522;SDS011;19889;52.546;13.348;2023-04-25T07:28:49;5.53;;;2.87;;
16522;SDS011;19889;52.546;13.348;2023-04-25T07:31:16;9.33;;;3.43;;
16522;SDS011;19889;52.546;13.348;2023-04-25T07:33:46;10.00;;;3.03;;
16522;SDS011;19889;52.546;13.348;2023-04-25T07:36:13;7.93;;;3.30;;
16522;SDS011;19889;52.546;13.348;2023-04-25T07:38:42;10.60;;;3.30;;
16522;SDS011;19889;52.546;13.348;2023-04-25T07:41:10;10.00;;;3.63;;
16522;SDS011;19889;52.546;13.348;2023-04-25T07:43:36;12.30;;;3.60;;
16522;SDS011;19889;52.546;13.348;2023-04-25T07:46:04;11.23;;;4.43;;
16522;SDS011;19889;52.546;13.348;2023-04-25T07:48:32;10.73;;;3.03;;
16522;SDS011;19889;52.546;13.348;2023-04-25T07:51:01;6.43;;;2.90;;
16522;SDS011;19889;52.546;13.348;2023-04-25T07:53:29;8.90;;;3.50;;
16522;SDS011;19889;52.546;13.348;2023-04-25T07:56:02;9.40;;;3.17;;
16522;SDS011;19889;52.546;13.348;2023-04-25T07:58:32;12.40;;;3.53;;
16522;SDS011;19889;52.546;13.348;2023-04-25T08:01:02;9.23;;;3.03;;
16522;SDS011;19889;52.546;13.348;2023-04-25T08:03:43;6.27;;;2.30;;
16522;SDS011;19889;52.546;13.348;2023-04-25T08:06:30;9.00;;;2.77;;
16522;SDS011;19889;52.546;13.348;2023-04-25T08:09:12;10.93;;;3.27;;
16522;SDS011;19889;52.546;13.348;2023-04-25T08:11:42;9.90;;;3.27;;
16522;SDS011;19889;52.546;13.348;2023-04-25T08:14:11;9.70;;;3.57;;
16522;SDS011;19889;52.546;13.348;2023-04-25T08:16:40;12.13;;;3.03;;
16522;SDS011;19889;52.546;13.348;2023-04-25T08:19:07;9.87;;;2.57;;
16522;SDS011;19889;52.546;13.348;2023-04-25T08:21:36;7.40;;;3.20;;
16522;SDS011;19889;52.546;13.348;2023-04-25T08:24:07;10.43;;;2.70;;
16522;SDS011;19889;52.546;13.348;2023-04-25T08:26:37;11.37;;;2.80;;
16522;SDS011;19889;52.546;13.348;2023-04-25T08:29:07;11.43;;;2.93;;
16522;SDS011;19889;52.546;13.348;2023-04-25T08:31:37;9.20;;;2.93;;
16522;SDS011;19889;52.546;13.348;2023-04-25T08:34:06;10.50;;;3.40;;
16522;SDS011;19889;52.546;13.348;2023-04-25T08:36:44;10.50;;;3.00;;
16522;SDS011;19889;52.546;13.348;2023-04-25T08:39:23;9.63;;;2.93;;
16522;SDS011;19889;52.546;13.348;2023-04-25T08:42:12;13.23;;;6.43;;
16522;SDS011;19889;52.546;13.348;2023-04-25T08:44:43;11.27;;;3.07;;
16522;SDS011;19889;52.546;13.348;2023-04-25T08:47:11;8.97;;;2.90;;
16522;SDS011;19889;52.546;13.348;2023-04-25T08:49:46;10.90;;;3.07;;
16522;SDS011;19889;52.546;13.348;2023-04-25T08:52:16;11.63;;;2.73;;
16522;SDS011;19889;52.546;13.348;2023-04-25T08:54:49;7.63;;;2.30;;
16522;SDS011;19889;52.546;13.348;2023-04-25T08:57:18;13.90;;;3.27;;
16522;SDS011;19889;52.546;13.348;2023-04-25T08:59:48;11.50;;;3.83;;
16522;SDS011;19889;52.546;13.348;2023-04-25T09:02:16;9.77;;;2.67;;
16522;SDS011;19889;52.546;13.348;2023-04-25T09:04:48;8.27;;;2.53;;
16522;SDS011;19889;52.546;13.348;2023-04-25T09:07:15;14.97;;;3.00;;
16522;SDS011;19889;52.546;13.348;2023-04-25T09:09:46;9.07;;;2.93;;
16522;SDS011;19889;52.546;13.348;2023-04-25T09:12:16;7.10;;;2.43;;
16522;SDS011;19889;52.546;13.348;2023-04-25T09:14:54;10.00;;;2.53;;
16522;SDS011;19889;52.546;13.348;2023-04-25T09:17:43;7.13;;;2.30;;
16522;SDS011;19889;52.546;13.348;2023-04-25T09:20:11;11.00;;;2.70;;
16522;SDS011;19889;52.546;13.348;2023-04-25T09:22:40;9.33;;;2.47;;
16522;SDS011;19889;52.546;13.348;2023-04-25T09:25:08;9.87;;;2.93;;
16522;SDS011;19889;52.546;13.348;2023-04-25T09:27:40;9.43;;;2.60;;
16522;SDS011;19889;52.546;13.348;2023-04-25T09:30:29;15.53;;;3.00;;
16522;SDS011;19889;52.546;13.348;2023-04-25T09:33:05;7.97;;;2.67;;
16522;SDS011;19889;52.546;13.348;2023-04-25T09:35:38;11.57;;;3.23;;
16522;SDS011;19889;52.546;13.348;2023-04-25T09:38:09;6.00;;;2.80;;
16522;SDS011;19889;52.546;13.348;2023-04-25T09:40:55;7.27;;;2.83;;
16522;SDS011;19889;52.546;13.348;2023-04-25T09:43:44;8.83;;;2.70;;
16522;SDS011;19889;52.546;13.348;2023-04-25T09:46:14;9.00;;;2.40;;
16522;SDS011;19889;52.546;13.348;2023-04-25T09:48:49;7.37;;;2.37;;
16522;SDS011;19889;52.546;13.348;2023-04-25T09:51:25;6.73;;;2.60;;
16522;SDS011;19889;52.546;13.348;2023-04-25T09:53:54;18.37;;;6.97;;
16522;SDS011;19889;52.546;13.348;2023-04-25T09:56:27;7.80;;;3.40;;
16522;SDS011;19889;52.546;13.348;2023-04-25T09:58:59;9.87;;;2.83;;
16522;SDS011;19889;52.546;13.348;2023-04-25T10:01:29;10.40;;;2.87;;
16522;SDS011;19889;52.546;13.348;2023-04-25T10:04:05;11.20;;;3.83;;
16522;SDS011;19889;52.546;13.348;2023-04-25T10:07:09;6.50;;;2.20;;
16522;SDS011;19889;52.546;13.348;2023-04-25T10:09:36;12.20;;;4.47;;
16522;SDS011;19889;52.546;13.348;2023-04-25T10:12:04;9.80;;;3.20;;
16522;SDS011;19889;52.546;13.348;2023-04-25T10:14:32;7.73;;;4.53;;
16522;SDS011;19889;52.546;13.348;2023-04-25T10:17:00;7.40;;;2.20;;
16522;SDS011;19889;52.546;13.348;2023-04-25T10:19:28;8.73;;;2.40;;
16522;SDS011;19889;52.546;13.348;2023-04-25T10:21:56;8.33;;;2.30;;
16522;SDS011;19889;52.546;13.348;2023-04-25T10:24:29;7.33;;;2.37;;
16522;SDS011;19889;52.546;13.348;2023-04-25T10:26:57;9.40;;;2.40;;
16522;SDS011;19889;52.546;13.348;2023-04-25T10:29:25;9.47;;;2.60;;
16522;SDS011;19889;52.546;13.348;2023-04-25T10:31:55;7.70;;;2.83;;
16522;SDS011;19889;52.546;13.348;2023-04-25T10:34:40;5.90;;;2.37;;
16522;SDS011;19889;52.546;13.348;2023-04-25T10:37:08;9.47;;;2.17;;
16522;SDS011;19889;52.546;13.348;2023-04-25T10:39:37;6.47;;;2.00;;
16522;SDS011;19889;52.546;13.348;2023-04-25T10:42:05;5.70;;;1.90;;
16522;SDS011;19889;52.546;13.348;2023-04-25T10:44:33;5.00;;;2.27;;
16522;SDS011;19889;52.546;13.348;2023-04-25T10:47:05;7.43;;;2.30;;
16522;SDS011;19889;52.546;13.348;2023-04-25T10:49:35;7.97;;;2.30;;
16522;SDS011;19889;52.546;13.348;2023-04-25T10:52:15;6.57;;;2.70;;
16522;SDS011;19889;52.546;13.348;2023-04-25T10:54:47;4.80;;;1.90;;
16522;SDS011;19889;52.546;13.348;2023-04-25T11:00:15;5.77;;;1.83;;
16522;SDS011;19889;52.546;13.348;2023-04-25T11:02:45;5.53;;;1.87;;
16522;SDS011;19889;52.546;13.348;2023-04-25T11:05:20;9.07;;;2.03;;
16522;SDS011;19889;52.546;13.348;2023-04-25T11:07:50;4.77;;;1.90;;
16522;SDS011;19889;52.546;13.348;2023-04-25T11:10:19;7.80;;;2.23;;
16522;SDS011;19889;52.546;13.348;2023-04-25T11:12:46;5.43;;;2.40;;
16522;SDS011;19889;52.546;13.348;2023-04-25T11:15:13;8.30;;;2.20;;
16522;SDS011;19889;52.546;13.348;2023-04-25T11:17:40;3.23;;;1.60;;
16522;SDS011;19889;52.546;13.348;2023-04-25T11:20:10;10.53;;;2.17;;
16522;SDS011;19889;52.546;13.348;2023-04-25T11:22:40;4.37;;;1.67;;
16522;SDS011;19889;52.546;13.348;2023-04-25T11:25:07;6.03;;;1.80;;
16522;SDS011;19889;52.546;13.348;2023-04-25T11:27:37;6.03;;;2.13;;
16522;SDS011;19889;52.546;13.348;2023-04-25T11:30:12;7.47;;;2.67;;
16522;SDS011;19889;52.546;13.348;2023-04-25T11:32:41;6.13;;;1.80;;
16522;SDS011;19889;52.546;13.348;2023-04-25T11:35:09;6.93;;;2.23;;
16522;SDS011;19889;52.546;13.348;2023-04-25T11:37:38;10.80;;;1.90;;
16522;SDS011;19889;52.546;13.348;2023-04-25T11:40:06;6.53;;;1.60;;
16522;SDS011;19889;52.546;13.348;2023-04-25T11:42:36;3.77;;;1.70;;
16522;SDS011;19889;52.546;13.348;2023-04-25T11:45:04;5.23;;;1.80;;
16522;SDS011;19889;52.546;13.348;2023-04-25T11:47:32;4.27;;;1.63;;
16522;SDS011;19889;52.546;13.348;2023-04-25T11:50:00;5.47;;;2.13;;
16522;SDS011;19889;52.546;13.348;2023-04-25T11:52:38;3.33;;;1.53;;
16522;SDS011;19889;52.546;13.348;2023-04-25T11:55:08;3.03;;;2.03;;
16522;SDS011;19889;52.546;13.348;2023-04-25T11:57:37;4.70;;;2.10;;
16522;SDS011;19889;52.546;13.348;2023-04-25T12:00:09;7.50;;;2.07;;
16522;SDS011;19889;52.546;13.348;2023-04-25T12:02:40;6.33;;;1.77;;
16522;SDS011;19889;52.546;13.348;2023-04-25T12:05:08;5.43;;;2.13;;
16522;SDS011;19889;52.546;13.348;2023-04-25T12:07:35;6.67;;;2.37;;
16522;SDS011;19889;52.546;13.348;2023-04-25T12:10:08;5.83;;;1.70;;
16522;SDS011;19889;52.546;13.348;2023-04-25T12:12:37;10.40;;;2.67;;
16522;SDS011;19889;52.546;13.348;2023-04-25T12:15:11;7.27;;;2.10;;
16522;SDS011;19889;52.546;13.348;2023-04-25T12:17:40;3.50;;;1.80;;
16522;SDS011;19889;52.546;13.348;2023-04-25T12:20:09;5.37;;;1.90;;
16522;SDS011;19889;52.546;13.348;2023-04-25T12:22:38;9.10;;;2.63;;
16522;SDS011;19889;52.546;13.348;2023-04-25T12:25:11;4.73;;;2.20;;
16522;SDS011;19889;52.546;13.348;2023-04-25T12:27:38;5.57;;;2.23;;
16522;SDS011;19889;52.546;13.348;2023-04-25T12:30:07;3.10;;;1.53;;
16522;SDS011;19889;52.546;13.348;2023-04-25T12:32:35;4.27;;;2.13;;
16522;SDS011;19889;52.546;13.348;2023-04-25T12:35:03;3.10;;;1.97;;
16522;SDS011;19889;52.546;13.348;2023-04-25T12:37:31;9.83;;;2.40;;
16522;SDS011;19889;52.546;13.348;2023-04-25T12:39:58;5.90;;;1.80;;
16522;SDS011;19889;52.546;13.348;2023-04-25T12:42:26;4.93;;;2.03;;
16522;SDS011;19889;52.546;13.348;2023-04-25T12:44:53;7.20;;;1.57;;
16522;SDS011;19889;52.546;13.348;2023-04-25T12:47:20;6.20;;;1.90;;
16522;SDS011;19889;52.546;13.348;2023-04-25T12:49:47;7.17;;;1.93;;
16522;SDS011;19889;52.546;13.348;2023-04-25T12:52:14;5.87;;;1.57;;
16522;SDS011;19889;52.546;13.348;2023-04-25T12:54:41;4.57;;;1.87;;
16522;SDS011;19889;52.546;13.348;2023-04-25T12:57:08;6.13;;;2.03;;
16522;SDS011;19889;52.546;13.348;2023-04-25T12:59:37;6.37;;;1.57;;
16522;SDS011;19889;52.546;13.348;2023-04-25T13:02:04;5.87;;;1.80;;
16522;SDS011;19889;52.546;13.348;2023-04-25T13:04:31;5.30;;;2.90;;
16522;SDS011;19889;52.546;13.348;2023-04-25T13:06:58;3.80;;;2.00;;
16522;SDS011;19889;52.546;13.348;2023-04-25T13:09:25;3.37;;;1.47;;
16522;SDS011;19889;52.546;13.348;2023-04-25T13:11:52;2.90;;;1.50;;
16522;SDS011;19889;52.546;13.348;2023-04-25T13:14:19;8.30;;;1.80;;
16522;SDS011;19889;52.546;13.348;2023-04-25T13:16:47;8.97;;;1.83;;
16522;SDS011;19889;52.546;13.348;2023-04-25T13:19:14;7.33;;;1.77;;
16522;SDS011;19889;52.546;13.348;2023-04-25T13:21:41;7.70;;;1.50;;
16522;SDS011;19889;52.546;13.348;2023-04-25T13:24:08;5.37;;;1.80;;
16522;SDS011;19889;52.546;13.348;2023-04-25T13:26:35;4.73;;;1.80;;
16522;SDS011;19889;52.546;13.348;2023-04-25T13:29:02;3.60;;;1.43;;
16522;SDS011;19889;52.546;13.348;2023-04-25T13:31:31;3.70;;;1.40;;
16522;SDS011;19889;52.546;13.348;2023-04-25T13:33:59;3.80;;;1.67;;
16522;SDS011;19889;52.546;13.348;2023-04-25T13:36:26;2.80;;;2.03;;
16522;SDS011;19889;52.546;13.348;2023-04-25T13:38:53;6.73;;;1.80;;
16522;SDS011;19889;52.546;13.348;2023-04-25T13:41:20;4.50;;;1.57;;
16522;SDS011;19889;52.546;13.348;2023-04-25T13:43:47;5.07;;;1.83;;
16522;SDS011;19889;52.546;13.348;2023-04-25T13:46:14;2.03;;;1.53;;
16522;SDS011;19889;52.546;13.348;2023-04-25T13:48:42;5.07;;;1.70;;
16522;SDS011;19889;52.546;13.348;2023-04-25T13:51:16;6.23;;;1.80;;
16522;SDS011;19889;52.546;13.348;2023-04-25T13:53:43;7.47;;;3.13;;
16522;SDS011;19889;52.546;13.348;2023-04-25T13:56:11;7.53;;;1.80;;
16522;SDS011;19889;52.546;13.348;2023-04-25T13:58:38;4.23;;;1.77;;
16522;SDS011;19889;52.546;13.348;2023-04-25T14:01:05;3.83;;;1.40;;
16522;SDS011;19889;52.546;13.348;2023-04-25T14:03:32;4.50;;;1.67;;
16522;SDS011;19889;52.546;13.348;2023-04-25T14:05:59;7.03;;;1.90;;
16522;SDS011;19889;52.546;13.348;2023-04-25T14:08:28;4.27;;;1.97;;
16522;SDS011;19889;52.546;13.348;2023-04-25T14:10:55;7.33;;;1.90;;
16522;SDS011;19889;52.546;13.348;2023-04-25T14:13:22;10.30;;;2.23;;
16522;SDS011;19889;52.546;13.348;2023-04-25T14:15:50;5.53;;;2.63;;
16522;SDS011;19889;52.546;13.348;2023-04-25T14:18:17;5.00;;;1.10;;
16522;SDS011;19889;52.546;13.348;2023-04-25T14:20:44;2.10;;;1.33;;
16522;SDS011;19889;52.546;13.348;2023-04-25T14:23:12;2.80;;;1.50;;
16522;SDS011;19889;52.546;13.348;2023-04-25T14:25:40;6.40;;;1.63;;
16522;SDS011;19889;52.546;13.348;2023-04-25T14:28:09;4.07;;;1.73;;
16522;SDS011;19889;52.546;13.348;2023-04-25T14:30:36;6.63;;;1.63;;
16522;SDS011;19889;52.546;13.348;2023-04-25T14:33:03;2.23;;;1.47;;
16522;SDS011;19889;52.546;13.348;2023-04-25T14:35:30;4.30;;;1.37;;
16522;SDS011;19889;52.546;13.348;2023-04-25T14:37:57;3.53;;;1.33;;
16522;SDS011;19889;52.546;13.348;2023-04-25T14:40:24;5.37;;;1.83;;
16522;SDS011;19889;52.546;13.348;2023-04-25T14:42:53;1.80;;;0.97;;
16522;SDS011;19889;52.546;13.348;2023-04-25T14:45:20;4.40;;;1.33;;
16522;SDS011;19889;52.546;13.348;2023-04-25T14:47:47;3.60;;;1.60;;
16522;SDS011;19889;52.546;13.348;2023-04-25T14:50:14;2.97;;;1.23;;
16522;SDS011;19889;52.546;13.348;2023-04-25T14:52:41;4.97;;;1.43;;
16522;SDS011;19889;52.546;13.348;2023-04-25T14:55:10;2.27;;;1.70;;
16522;SDS011;19889;52.546;13.348;2023-04-25T14:57:37;2.80;;;1.40;;